Time;durP1;ratioP1;P1;durP2;ratioP2;P2;SDS_P1;SDS_P2;PMS_P1;PMS_P2;Temp;Humidity;BMP_temperature;BMP_pressure;BME280_temperature;BME280_humidity;BME280_pressure;Samples;Min_cycle;Max_cycle;Signal;HPM_P1;HPM_P2
2023/08/15 04:39:00;;;;;;;;;6.67;5.00;;;;;;;;5026862;22;45563;-70
2023/08/15 04:41:26;;;;;;;;;5.33;5.00;;;;;;;;5015060;28;45611;-71
2023/08/15 04:43:51;;;;;;;;;8.00;5.00;;;;;;;;5018526;28;45565;-71
2023/08/15 04:46:16;;;;;;;;;5.67;4.00;;;;;;;;5019140;28;45415;-72
2023/08/15 04:48:41;;;;;;;;;5.00;3.67;;;;;;;;5012568;28;46357;-72
2023/08/15 04:51:06;;;;;;;;;4.67;4.67;;;;;;;;5019832;28;45215;-72
2023/08/15 04:53:32;;;;;;;;;3.33;3.33;;;;;;;;5016051;28;45671;-71
2023/08/15 04:55:57;;;;;;;;;6.00;3.00;;;;;;;;5019093;28;45603;-72
2023/08/15 04:58:22;;;;;;;;;6.00;5.00;;;;;;;;5017866;28;45471;-71
2023/08/15 05:00:47;;;;;;;;;3.67;3.67;;;;;;;;5016389;28;45583;-71
2023/08/15 05:03:12;;;;;;;;;6.33;5.00;;;;;;;;5014174;28;47277;-70
2023/08/15 05:05:38;;;;;;;;;3.67;3.67;;;;;;;;5019710;28;45418;-71
2023/08/15 05:08:03;;;;;;;;;5.33;5.33;;;;;;;;5014594;28;46302;-71
2023/08/15 05:10:28;;;;;;;;;5.33;5.33;;;;;;;;5019678;28;45299;-71
2023/08/15 05:12:56;;;;;;;;;6.67;3.67;;;;;;;;5017910;28;45552;-71
2023/08/15 05:15:21;;;;;;;;;3.67;3.67;;;;;;;;5019601;28;45474;-71
2023/08/15 05:17:48;;;;;;;;;10.00;4.33;;;;;;;;5017893;28;46439;-71
2023/08/15 05:20:14;;;;;;;;;4.67;4.67;;;;;;;;5019406;28;45240;-70
2023/08/15 05:22:39;;;;;;;;;6.33;4.67;;;;;;;;5015166;28;45281;-71
2023/08/15 05:25:05;;;;;;;;;3.33;2.67;;;;;;;;5015188;28;45321;-71
2023/08/15 05:27:30;;;;;;;;;4.00;3.00;;;;;;;;5017162;28;45703;-71
2023/08/15 05:29:55;;;;;;;;;4.67;3.00;;;;;;;;5018835;28;45421;-71
2023/08/15 05:32:20;;;;;;;;;4.33;3.67;;;;;;;;5017363;28;45450;-71
2023/08/15 05:34:46;;;;;;;;;7.00;4.00;;;;;;;;5019396;28;45346;-71
2023/08/15 05:37:11;;;;;;;;;3.33;3.33;;;;;;;;5017096;28;45603;-71
2023/08/15 05:39:36;;;;;;;;;6.00;4.00;;;;;;;;5014065;28;45403;-71
2023/08/15 05:42:01;;;;;;;;;4.00;4.00;;;;;;;;5016548;28;45201;-71
2023/08/15 05:44:26;;;;;;;;;5.67;5.67;;;;;;;;5005661;28;45305;-71
2023/08/15 05:46:52;;;;;;;;;3.00;2.67;;;;;;;;5014749;28;46267;-71
2023/08/15 05:49:17;;;;;;;;;2.00;2.00;;;;;;;;5015166;28;45259;-71
2023/08/15 05:51:42;;;;;;;;;3.67;3.67;;;;;;;;5017232;28;45556;-71
2023/08/15 05:54:07;;;;;;;;;6.00;3.00;;;;;;;;5014377;28;45439;-71
2023/08/15 05:56:32;;;;;;;;;4.33;4.00;;;;;;;;5017480;28;46383;-71
2023/08/15 05:58:58;;;;;;;;;5.33;4.33;;;;;;;;5014425;28;45335;-71
2023/08/15 06:01:23;;;;;;;;;4.00;4.00;;;;;;;;5018178;28;45500;-71
2023/08/15 06:03:48;;;;;;;;;5.67;3.00;;;;;;;;5013324;28;45664;-71
2023/08/15 06:06:13;;;;;;;;;1.67;1.00;;;;;;;;5018889;28;45408;-71
2023/08/15 06:08:39;;;;;;;;;7.33;4.00;;;;;;;;5010282;28;45391;-71
2023/08/15 06:11:04;;;;;;;;;4.67;4.00;;;;;;;;5015515;28;45324;-71
2023/08/15 06:13:29;;;;;;;;;3.00;3.00;;;;;;;;5012888;28;45509;-71
2023/08/15 06:15:54;;;;;;;;;3.67;3.67;;;;;;;;5018776;28;45469;-71
2023/08/15 06:18:19;;;;;;;;;4.67;4.33;;;;;;;;5014105;28;45289;-71
2023/08/15 06:20:45;;;;;;;;;4.67;4.67;;;;;;;;5018778;28;45323;-70
2023/08/15 06:23:10;;;;;;;;;3.67;3.00;;;;;;;;5014633;28;46209;-71
2023/08/15 06:25:37;;;;;;;;;7.33;4.33;;;;;;;;5016530;28;45426;-71
2023/08/15 06:28:03;;;;;;;;;3.00;3.00;;;;;;;;5015730;28;45233;-71
2023/08/15 06:30:28;;;;;;;;;3.67;3.67;;;;;;;;5017798;28;45320;-71
2023/08/15 06:32:53;;;;;;;;;4.00;2.67;;;;;;;;5016765;28;45291;-71
2023/08/15 06:35:18;;;;;;;;;7.00;4.33;;;;;;;;5023735;28;47048;-71
2023/08/15 06:37:44;;;;;;;;;6.33;5.00;;;;;;;;5016299;28;45399;-70
2023/08/15 06:40:10;;;;;;;;;4.00;3.00;;;;;;;;5018500;28;45376;-71
2023/08/15 06:42:35;;;;;;;;;4.67;3.00;;;;;;;;5019918;28;45392;-71
2023/08/15 06:45:01;;;;;;;;;4.67;4.67;;;;;;;;5021788;28;46285;-72
2023/08/15 06:47:26;;;;;;;;;4.67;3.33;;;;;;;;5019885;28;45391;-71
2023/08/15 06:49:51;;;;;;;;;6.00;5.00;;;;;;;;5015799;28;45455;-71
2023/08/15 06:52:16;;;;;;;;;4.00;4.00;;;;;;;;5019944;28;45157;-70
2023/08/15 06:54:42;;;;;;;;;6.33;4.33;;;;;;;;5014192;28;46479;-70
2023/08/15 06:57:07;;;;;;;;;4.67;4.67;;;;;;;;5020339;28;45149;-71
2023/08/15 06:59:35;;;;;;;;;5.67;4.00;;;;;;;;5028501;28;45237;-69
2023/08/15 07:02:00;;;;;;;;;7.33;5.00;;;;;;;;5020438;28;45260;-71
2023/08/15 07:04:26;;;;;;;;;6.00;4.00;;;;;;;;5018733;28;47743;-70
2023/08/15 07:06:52;;;;;;;;;5.33;4.00;;;;;;;;5018810;28;45239;-71
2023/08/15 07:09:17;;;;;;;;;3.67;2.67;;;;;;;;5017550;28;45324;-71
2023/08/15 07:11:43;;;;;;;;;2.33;2.33;;;;;;;;5017997;28;46356;-71
2023/08/15 07:14:08;;;;;;;;;4.00;4.00;;;;;;;;5019654;28;47485;-72
2023/08/15 07:16:33;;;;;;;;;4.00;4.00;;;;;;;;5019455;28;45244;-72
2023/08/15 07:18:59;;;;;;;;;4.00;4.00;;;;;;;;5013412;28;45763;-72
2023/08/15 07:21:24;;;;;;;;;6.00;4.00;;;;;;;;5019574;28;45249;-72
2023/08/15 07:23:50;;;;;;;;;4.00;4.00;;;;;;;;5017206;28;45593;-72
2023/08/15 07:26:15;;;;;;;;;4.00;3.33;;;;;;;;5020770;28;45466;-72
2023/08/15 07:28:40;;;;;;;;;4.33;4.33;;;;;;;;5018197;28;45519;-72
2023/08/15 07:31:05;;;;;;;;;3.33;3.00;;;;;;;;5020936;28;45276;-72
2023/08/15 07:33:30;;;;;;;;;4.00;3.00;;;;;;;;5018955;28;46122;-72
2023/08/15 07:35:56;;;;;;;;;4.75;4.75;;;;;;;;5021012;28;45615;-72
2023/08/15 07:38:21;;;;;;;;;3.50;3.25;;;;;;;;5018745;28;45447;-72
2023/08/15 07:40:47;;;;;;;;;4.25;2.25;;;;;;;;5020830;28;45423;-72
2023/08/15 07:43:13;;;;;;;;;3.75;3.00;;;;;;;;5014718;28;45933;-71
2023/08/15 07:45:38;;;;;;;;;3.25;2.25;;;;;;;;5020637;28;46417;-71
2023/08/15 07:48:03;;;;;;;;;2.75;2.50;;;;;;;;5017897;28;45486;-71
2023/08/15 07:50:29;;;;;;;;;2.25;2.25;;;;;;;;5019740;28;46812;-67
2023/08/15 07:52:58;;;;;;;;;4.50;3.00;;;;;;;;5014828;28;46523;-70
2023/08/15 07:55:23;;;;;;;;;3.00;3.00;;;;;;;;5015839;28;45414;-71
2023/08/15 07:57:48;;;;;;;;;4.75;4.00;;;;;;;;5017073;28;45358;-70
2023/08/15 08:00:14;;;;;;;;;2.25;2.25;;;;;;;;5020411;28;45656;-71
2023/08/15 08:02:44;;;;;;;;;2.50;2.50;;;;;;;;5015505;28;45361;-70
2023/08/15 08:05:09;;;;;;;;;2.50;2.50;;;;;;;;5013675;28;45376;-72
2023/08/15 08:07:35;;;;;;;;;5.25;3.75;;;;;;;;5016899;28;45371;-72
2023/08/15 08:10:00;;;;;;;;;5.00;4.00;;;;;;;;5009226;28;46325;-71
2023/08/15 08:12:26;;;;;;;;;2.25;2.25;;;;;;;;5018412;28;46639;-71
2023/08/15 08:14:51;;;;;;;;;2.00;2.00;;;;;;;;5014205;28;45737;-71
2023/08/15 08:17:16;;;;;;;;;3.50;2.50;;;;;;;;5015673;28;45306;-71
2023/08/15 08:19:42;;;;;;;;;4.00;3.00;;;;;;;;5018904;28;45229;-71
2023/08/15 08:22:07;;;;;;;;;5.00;3.00;;;;;;;;5016976;28;45366;-71
2023/08/15 08:24:32;;;;;;;;;5.75;3.50;;;;;;;;5016703;28;45438;-71
2023/08/15 08:26:57;;;;;;;;;6.00;3.00;;;;;;;;5017692;28;45486;-71
2023/08/15 08:29:22;;;;;;;;;6.00;2.50;;;;;;;;5018629;28;46519;-71
2023/08/15 08:31:48;;;;;;;;;4.00;4.00;;;;;;;;5018156;28;45331;-71
2023/08/15 08:34:16;;;;;;;;;3.00;2.00;;;;;;;;5015684;28;45308;-72
2023/08/15 08:36:41;;;;;;;;;4.00;3.20;;;;;;;;5018173;28;45237;-71
2023/08/15 08:39:10;;;;;;;;;3.00;3.00;;;;;;;;5014533;28;45268;-71
2023/08/15 08:41:38;;;;;;;;;3.20;3.20;;;;;;;;5018214;28;46205;-73
2023/08/15 08:44:04;;;;;;;;;3.60;3.00;;;;;;;;5017184;28;45276;-72
2023/08/15 08:46:29;;;;;;;;;2.25;2.00;;;;;;;;5019116;28;45226;-73
2023/08/15 08:48:58;;;;;;;;;3.75;2.25;;;;;;;;5013346;28;45353;-73
2023/08/15 08:51:27;;;;;;;;;1.60;1.60;;;;;;;;5018126;28;47177;-73
2023/08/15 08:53:53;;;;;;;;;2.60;2.40;;;;;;;;5015742;28;45449;-73
2023/08/15 08:56:21;;;;;;;;;3.00;3.00;;;;;;;;5019982;28;45492;-73
2023/08/15 08:58:49;;;;;;;;;3.20;3.20;;;;;;;;5013993;28;45546;-73
2023/08/15 09:01:15;;;;;;;;;3.80;2.80;;;;;;;;5017941;28;47546;-72
2023/08/15 09:03:41;;;;;;;;;4.50;2.75;;;;;;;;5015067;28;45347;-72
2023/08/15 09:06:07;;;;;;;;;3.25;1.50;;;;;;;;5019594;28;45426;-72
2023/08/15 09:08:32;;;;;;;;;1.20;1.20;;;;;;;;5016480;28;45264;-71
2023/08/15 09:10:57;;;;;;;;;3.00;3.00;;;;;;;;5018469;28;45236;-71
2023/08/15 09:13:26;;;;;;;;;2.75;2.75;;;;;;;;5017610;28;45319;-72
2023/08/15 09:15:56;;;;;;;;;2.80;2.80;;;;;;;;5019307;28;45292;-72
2023/08/15 09:18:24;;;;;;;;;2.20;1.20;;;;;;;;5014853;28;45441;-71
2023/08/15 09:20:49;;;;;;;;;3.80;1.80;;;;;;;;5018990;28;45520;-71
2023/08/15 09:23:15;;;;;;;;;1.75;1.75;;;;;;;;5015980;28;45482;-72
2023/08/15 09:25:40;;;;;;;;;5.25;2.75;;;;;;;;5019338;28;45440;-71
2023/08/15 09:28:05;;;;;;;;;2.50;2.00;;;;;;;;5016792;28;45525;-71
2023/08/15 09:30:31;;;;;;;;;2.50;2.00;;;;;;;;5018855;28;46228;-71
2023/08/15 09:32:56;;;;;;;;;7.25;3.75;;;;;;;;5012702;28;45415;-71
2023/08/15 09:35:22;;;;;;;;;3.25;3.00;;;;;;;;5017814;28;45699;-71
2023/08/15 09:37:48;;;;;;;;;3.75;3.00;;;;;;;;5009545;28;46325;-69
2023/08/15 09:40:17;;;;;;;;;3.20;2.00;;;;;;;;5013065;28;46339;-70
2023/08/15 09:42:43;;;;;;;;;2.20;2.20;;;;;;;;5009656;28;45450;-71
2023/08/15 09:45:10;;;;;;;;;2.00;2.00;;;;;;;;5018583;28;45378;-71
2023/08/15 09:47:36;;;;;;;;;2.00;2.00;;;;;;;;5013144;28;45423;-71
2023/08/15 09:50:02;;;;;;;;;2.60;2.60;;;;;;;;5018618;28;46297;-71
2023/08/15 09:52:28;;;;;;;;;2.75;2.00;;;;;;;;5014284;28;45428;-71
2023/08/15 09:54:54;;;;;;;;;2.20;2.20;;;;;;;;5018699;28;45389;-70
2023/08/15 09:57:19;;;;;;;;;4.00;3.25;;;;;;;;5015436;28;45298;-70
2023/08/15 09:59:44;;;;;;;;;0.25;0.25;;;;;;;;5018595;28;45477;-71
2023/08/15 10:02:18;;;;;;;;;4.00;3.00;;;;;;;;5016515;28;45422;-71
2023/08/15 10:04:45;;;;;;;;;2.00;2.00;;;;;;;;5018739;28;45490;-70
2023/08/15 10:07:10;;;;;;;;;3.40;2.80;;;;;;;;5016189;28;45365;-70
2023/08/15 10:09:36;;;;;;;;;2.50;2.25;;;;;;;;5017811;28;46336;-71
2023/08/15 10:12:01;;;;;;;;;7.00;5.25;;;;;;;;5016658;28;45348;-71
2023/08/15 10:14:27;;;;;;;;;1.75;1.75;;;;;;;;5011413;28;45339;-72
2023/08/15 10:16:53;;;;;;;;;2.20;2.20;;;;;;;;5020590;28;45801;-71
2023/08/15 10:19:18;;;;;;;;;5.75;3.75;;;;;;;;5019664;28;46293;-71
2023/08/15 10:21:48;;;;;;;;;3.25;3.25;;;;;;;;5020360;28;45348;-72
2023/08/15 10:24:13;;;;;;;;;3.60;3.00;;;;;;;;5021113;28;45569;-72
2023/08/15 10:26:39;;;;;;;;;2.00;2.00;;;;;;;;5019994;28;45436;-72
2023/08/15 10:29:04;;;;;;;;;3.25;3.25;;;;;;;;5021513;28;46204;-71
2023/08/15 10:31:36;;;;;;;;;3.75;3.75;;;;;;;;5021278;28;45394;-71
2023/08/15 10:34:02;;;;;;;;;6.00;6.00;;;;;;;;5018344;28;45435;-71
2023/08/15 10:36:28;;;;;;;;;5.80;5.00;;;;;;;;5018641;28;46411;-71
2023/08/15 10:38:53;;;;;;;;;2.25;2.25;;;;;;;;5015550;28;46474;-70
2023/08/15 10:41:19;;;;;;;;;3.00;3.00;;;;;;;;5021765;28;45225;-69
2023/08/15 10:43:49;;;;;;;;;3.40;2.80;;;;;;;;5018469;28;46689;-70
2023/08/15 10:46:15;;;;;;;;;8.20;7.20;;;;;;;;5020989;28;45292;-74
2023/08/15 10:48:40;;;;;;;;;5.60;4.00;;;;;;;;5015608;28;45455;-72
2023/08/15 10:51:14;;;;;;;;;3.00;3.00;;;;;;;;5018928;28;45281;-71
2023/08/15 10:53:40;;;;;;;;;4.40;2.40;;;;;;;;5017877;28;45229;-71
2023/08/15 10:56:06;;;;;;;;;2.25;2.25;;;;;;;;5020995;28;45502;-72
2023/08/15 10:58:31;;;;;;;;;2.25;2.25;;;;;;;;5019363;28;45283;-71
2023/08/15 11:00:56;;;;;;;;;3.00;1.00;;;;;;;;5019104;28;45380;-72
2023/08/15 11:03:21;;;;;;;;;2.75;2.00;;;;;;;;5018969;28;45523;-71
2023/08/15 11:05:47;;;;;;;;;2.25;2.00;;;;;;;;5020892;28;45378;-71
2023/08/15 11:08:15;;;;;;;;;2.00;2.00;;;;;;;;5017226;28;45407;-71
2023/08/15 11:10:48;;;;;;;;;1.40;1.40;;;;;;;;5021285;28;45371;-71
2023/08/15 11:13:13;;;;;;;;;1.80;1.20;;;;;;;;5018844;28;45368;-71
2023/08/15 11:15:39;;;;;;;;;3.75;2.25;;;;;;;;5020346;28;45419;-71
2023/08/15 11:18:04;;;;;;;;;9.50;7.75;;;;;;;;5017929;28;45396;-72
2023/08/15 11:20:30;;;;;;;;;1.00;1.00;;;;;;;;5023600;28;45381;-72
2023/08/15 11:22:58;;;;;;;;;1.50;1.50;;;;;;;;5016546;28;45358;-72
2023/08/15 11:25:24;;;;;;;;;3.00;0.80;;;;;;;;5020533;28;45461;-72
2023/08/15 11:27:50;;;;;;;;;2.00;1.50;;;;;;;;5016015;28;46397;-73
2023/08/15 11:30:16;;;;;;;;;1.60;1.60;;;;;;;;5021095;28;45240;-72
2023/08/15 11:32:41;;;;;;;;;1.00;1.00;;;;;;;;5018377;28;45466;-72
2023/08/15 11:35:06;;;;;;;;;40.00;35.75;;;;;;;;5018824;28;45328;-72
2023/08/15 11:37:32;;;;;;;;;1.25;0.75;;;;;;;;5012227;28;45516;-72
2023/08/15 11:39:57;;;;;;;;;0.75;0.00;;;;;;;;5015172;28;45222;-72
2023/08/15 11:42:22;;;;;;;;;1.50;1.50;;;;;;;;5014875;28;45637;-72
2023/08/15 11:44:59;;;;;;;;;1.00;1.00;;;;;;;;5015208;28;45301;-72
2023/08/15 11:47:24;;;;;;;;;9.80;8.60;;;;;;;;5015292;28;45343;-72
2023/08/15 11:49:50;;;;;;;;;25.00;22.50;;;;;;;;5019155;28;45358;-72
2023/08/15 11:52:17;;;;;;;;;3.50;3.50;;;;;;;;5017749;28;45418;-72
2023/08/15 11:54:46;;;;;;;;;4.20;1.40;;;;;;;;5019676;28;45442;-72
2023/08/15 11:57:11;;;;;;;;;4.60;4.60;;;;;;;;5016867;28;46019;-72
2023/08/15 11:59:37;;;;;;;;;5.00;2.00;;;;;;;;5020080;28;45209;-72
2023/08/15 12:02:02;;;;;;;;;1.40;1.40;;;;;;;;5018021;28;45530;-73
2023/08/15 12:04:33;;;;;;;;;5.50;3.25;;;;;;;;5019571;28;45682;-71
2023/08/15 12:06:58;;;;;;;;;66.00;57.33;;;;;;;;5017446;28;45475;-72
2023/08/15 12:09:28;;;;;;;;;1.25;1.25;;;;;;;;5016313;28;45425;-72
2023/08/15 12:11:53;;;;;;;;;6.80;6.40;;;;;;;;5018322;28;45480;-73
2023/08/15 12:14:19;;;;;;;;;15.25;12.75;;;;;;;;5017884;28;45255;-74
2023/08/15 12:16:44;;;;;;;;;4.75;4.00;;;;;;;;5019189;28;45536;-72
2023/08/15 12:19:10;;;;;;;;;3.25;3.25;;;;;;;;5015081;28;45292;-74
2023/08/15 12:21:35;;;;;;;;;18.50;18.50;;;;;;;;5018834;28;45362;-73
2023/08/15 12:24:00;;;;;;;;;5.00;4.75;;;;;;;;5010772;28;45475;-73
2023/08/15 12:26:25;;;;;;;;;3.00;3.00;;;;;;;;5014723;28;45536;-72
2023/08/15 12:28:51;;;;;;;;;3.25;3.25;;;;;;;;5010200;28;45256;-73
2023/08/15 12:31:16;;;;;;;;;3.75;3.75;;;;;;;;5027848;28;45458;-73
2023/08/15 12:33:41;;;;;;;;;3.25;3.25;;;;;;;;5012619;28;45463;-73
2023/08/15 12:36:07;;;;;;;;;4.50;4.50;;;;;;;;5001415;28;47005;-73
2023/08/15 12:38:32;;;;;;;;;1.25;1.25;;;;;;;;5012791;28;45515;-73
2023/08/15 12:40:57;;;;;;;;;3.75;1.00;;;;;;;;5014057;28;45502;-70
2023/08/15 12:43:22;;;;;;;;;3.00;3.00;;;;;;;;5013437;28;45470;-71
2023/08/15 12:45:48;;;;;;;;;1.50;1.50;;;;;;;;5011050;28;46414;-71
2023/08/15 12:48:13;;;;;;;;;2.25;2.25;;;;;;;;5007773;28;45454;-72
2023/08/15 12:50:39;;;;;;;;;2.50;1.25;;;;;;;;5005848;28;45340;-72
2023/08/15 12:53:04;;;;;;;;;13.20;10.20;;;;;;;;5011031;28;45296;-71
2023/08/15 12:55:30;;;;;;;;;3.75;3.75;;;;;;;;5014128;28;45232;-72
2023/08/15 12:57:55;;;;;;;;;4.00;2.00;;;;;;;;5013988;28;45296;-71
2023/08/15 13:00:21;;;;;;;;;2.00;1.25;;;;;;;;5013671;28;45328;-72
2023/08/15 13:02:46;;;;;;;;;3.25;2.50;;;;;;;;5015687;28;45536;-71
2023/08/15 13:05:11;;;;;;;;;3.75;1.75;;;;;;;;5019350;28;45486;-71
2023/08/15 13:07:37;;;;;;;;;1.00;1.00;;;;;;;;5016426;28;45325;-72
2023/08/15 13:10:02;;;;;;;;;0.50;0.50;;;;;;;;5014020;28;45567;-72
2023/08/15 13:12:27;;;;;;;;;3.50;1.25;;;;;;;;5018165;28;45242;-72
2023/08/15 13:14:52;;;;;;;;;3.00;3.00;;;;;;;;5013095;28;45440;-72
2023/08/15 13:17:18;;;;;;;;;3.50;2.75;;;;;;;;5014746;28;45398;-72
2023/08/15 13:19:43;;;;;;;;;5.75;2.00;;;;;;;;5021249;28;45400;-72
2023/08/15 13:22:08;;;;;;;;;0.75;0.75;;;;;;;;5014285;28;45631;-72
2023/08/15 13:24:33;;;;;;;;;2.00;1.25;;;;;;;;5014291;28;45474;-72
2023/08/15 13:26:58;;;;;;;;;3.00;3.00;;;;;;;;5016810;28;45431;-72
2023/08/15 13:29:24;;;;;;;;;1.75;1.00;;;;;;;;5008330;28;45267;-72
2023/08/15 13:31:49;;;;;;;;;7.50;6.25;;;;;;;;5016717;28;45359;-72
2023/08/15 13:34:17;;;;;;;;;8.50;7.50;;;;;;;;5011904;28;47108;-72
2023/08/15 13:36:42;;;;;;;;;3.40;2.20;;;;;;;;5017547;28;45488;-72
2023/08/15 13:39:07;;;;;;;;;3.00;1.25;;;;;;;;5010900;28;45445;-72
2023/08/15 13:41:32;;;;;;;;;3.00;1.75;;;;;;;;5017195;28;45912;-72
2023/08/15 13:43:57;;;;;;;;;2.50;2.50;;;;;;;;5021249;28;46933;-73
2023/08/15 13:46:23;;;;;;;;;3.00;3.00;;;;;;;;5017782;28;45292;-71
2023/08/15 13:48:48;;;;;;;;;1.50;1.00;;;;;;;;5013013;28;45352;-72
2023/08/15 13:51:15;;;;;;;;;1.50;1.50;;;;;;;;5031607;28;45486;-70
2023/08/15 13:53:41;;;;;;;;;2.00;2.00;;;;;;;;5014435;28;45368;-71
2023/08/15 13:56:06;;;;;;;;;0.50;0.50;;;;;;;;5018416;28;45478;-70
2023/08/15 13:58:31;;;;;;;;;2.00;2.00;;;;;;;;5015234;28;45382;-70
2023/08/15 14:00:56;;;;;;;;;3.00;2.00;;;;;;;;5018340;28;45779;-70
2023/08/15 14:03:24;;;;;;;;;1.00;1.00;;;;;;;;5014586;28;47490;-71
2023/08/15 14:05:49;;;;;;;;;2.00;2.00;;;;;;;;5018509;28;45379;-71
2023/08/15 14:08:15;;;;;;;;;4.75;1.25;;;;;;;;5016742;28;45635;-71
2023/08/15 14:10:40;;;;;;;;;1.25;1.25;;;;;;;;5018616;28;45246;-71
2023/08/15 14:13:05;;;;;;;;;4.50;1.25;;;;;;;;5008017;28;45478;-71
2023/08/15 14:15:30;;;;;;;;;2.00;1.00;;;;;;;;5016661;28;45350;-70
2023/08/15 14:17:56;;;;;;;;;2.75;2.75;;;;;;;;5014315;28;45404;-70
2023/08/15 14:20:21;;;;;;;;;1.00;0.25;;;;;;;;5016371;28;45391;-70
2023/08/15 14:22:46;;;;;;;;;0.75;0.75;;;;;;;;5012491;28;45288;-71
2023/08/15 14:25:12;;;;;;;;;3.25;0.75;;;;;;;;5018270;28;45446;-71
2023/08/15 14:27:37;;;;;;;;;1.25;1.25;;;;;;;;5013719;28;45445;-71
2023/08/15 14:30:03;;;;;;;;;2.00;1.25;;;;;;;;5018287;28;45298;-71
2023/08/15 14:32:28;;;;;;;;;1.00;1.00;;;;;;;;5014864;28;45229;-71
2023/08/15 14:34:53;;;;;;;;;1.00;1.00;;;;;;;;5015937;28;45340;-71
2023/08/15 14:37:18;;;;;;;;;0.50;0.50;;;;;;;;5015840;28;45410;-71
2023/08/15 14:39:44;;;;;;;;;1.25;1.25;;;;;;;;5018181;28;45599;-71
2023/08/15 14:42:09;;;;;;;;;1.75;1.75;;;;;;;;5016681;28;45580;-71
2023/08/15 14:44:34;;;;;;;;;1.25;0.00;;;;;;;;5018257;28;45347;-71
2023/08/15 14:46:59;;;;;;;;;1.00;1.00;;;;;;;;5015164;28;45399;-71
2023/08/15 14:49:25;;;;;;;;;0.25;0.25;;;;;;;;5017065;28;45443;-71
2023/08/15 14:51:50;;;;;;;;;0.75;0.75;;;;;;;;5015583;28;46180;-71
2023/08/15 14:54:17;;;;;;;;;0.00;0.00;;;;;;;;5017083;28;45327;-71
2023/08/15 14:56:42;;;;;;;;;1.20;0.80;;;;;;;;5015689;28;45406;-71
2023/08/15 14:59:07;;;;;;;;;0.00;0.00;;;;;;;;5017014;28;45209;-71
2023/08/15 15:01:32;;;;;;;;;2.00;1.75;;;;;;;;5017252;28;46192;-70
2023/08/15 15:03:58;;;;;;;;;2.00;1.00;;;;;;;;5018551;28;45332;-70
2023/08/15 15:06:23;;;;;;;;;0.50;0.50;;;;;;;;5021141;28;46142;-70
2023/08/15 15:08:49;;;;;;;;;0.00;0.00;;;;;;;;5019384;28;45415;-71
2023/08/15 15:11:14;;;;;;;;;2.25;2.00;;;;;;;;5019676;28;46750;-70
2023/08/15 15:13:39;;;;;;;;;0.00;0.00;;;;;;;;5014463;28;45809;-70
2023/08/15 15:16:04;;;;;;;;;1.00;1.00;;;;;;;;5020431;28;45470;-70
2023/08/15 15:18:30;;;;;;;;;0.50;0.50;;;;;;;;5012816;28;45461;-71
2023/08/15 15:20:55;;;;;;;;;0.75;0.75;;;;;;;;5020731;28;45277;-71
2023/08/15 15:23:20;;;;;;;;;0.25;0.25;;;;;;;;5015653;28;45375;-71
2023/08/15 15:25:46;;;;;;;;;1.00;0.50;;;;;;;;5013403;28;45854;-72
2023/08/15 15:28:11;;;;;;;;;1.75;1.00;;;;;;;;5014874;28;45321;-71
2023/08/15 15:30:36;;;;;;;;;1.00;1.00;;;;;;;;5014254;28;45498;-71
2023/08/15 15:33:02;;;;;;;;;1.00;0.25;;;;;;;;5014279;28;45400;-71
2023/08/15 15:35:27;;;;;;;;;0.50;0.00;;;;;;;;5014324;28;45439;-71
2023/08/15 15:37:52;;;;;;;;;2.50;1.75;;;;;;;;5013196;28;45506;-71
2023/08/15 15:40:18;;;;;;;;;0.75;0.75;;;;;;;;5022621;28;46612;-71
2023/08/15 15:42:43;;;;;;;;;0.50;0.00;;;;;;;;5017109;28;45415;-71
2023/08/15 15:45:08;;;;;;;;;2.00;2.00;;;;;;;;5020777;28;45354;-72
2023/08/15 15:47:33;;;;;;;;;0.00;0.00;;;;;;;;5016183;28;45370;-72
2023/08/15 15:49:59;;;;;;;;;0.00;0.00;;;;;;;;5018014;28;45355;-71
2023/08/15 15:52:24;;;;;;;;;1.25;1.25;;;;;;;;5017486;28;45394;-71
2023/08/15 15:54:49;;;;;;;;;2.25;1.25;;;;;;;;5018360;28;45191;-71
2023/08/15 15:57:14;;;;;;;;;2.25;0.25;;;;;;;;5018285;28;45478;-71
2023/08/15 15:59:39;;;;;;;;;1.75;0.75;;;;;;;;5019696;28;45493;-71
2023/08/15 16:02:04;;;;;;;;;0.25;0.25;;;;;;;;5018551;28;45415;-72
2023/08/15 16:04:30;;;;;;;;;1.25;0.25;;;;;;;;5011570;28;45348;-71
2023/08/15 16:06:56;;;;;;;;;2.25;1.25;;;;;;;;5018259;28;45409;-71
2023/08/15 16:09:21;;;;;;;;;1.00;1.00;;;;;;;;5012981;28;46189;-71
2023/08/15 16:11:46;;;;;;;;;2.00;2.00;;;;;;;;5019348;28;45134;-71
2023/08/15 16:14:11;;;;;;;;;1.00;1.00;;;;;;;;5013292;28;45529;-72
2023/08/15 16:16:37;;;;;;;;;1.50;1.00;;;;;;;;5019723;28;45409;-72
2023/08/15 16:19:02;;;;;;;;;2.00;1.50;;;;;;;;5010437;28;45462;-72
2023/08/15 16:21:27;;;;;;;;;1.00;1.00;;;;;;;;5020035;28;45325;-72
2023/08/15 16:23:53;;;;;;;;;1.00;1.00;;;;;;;;5012833;28;45305;-71
2023/08/15 16:26:18;;;;;;;;;1.00;1.00;;;;;;;;5020278;28;45465;-71
2023/08/15 16:28:45;;;;;;;;;1.00;1.00;;;;;;;;5010518;28;45562;-71
2023/08/15 16:31:10;;;;;;;;;0.40;0.40;;;;;;;;5014567;28;45372;-72
2023/08/15 16:33:35;;;;;;;;;0.25;0.25;;;;;;;;5012451;28;45452;-71
2023/08/15 16:36:00;;;;;;;;;0.75;0.75;;;;;;;;5014850;28;45257;-71
2023/08/15 16:38:25;;;;;;;;;0.25;0.25;;;;;;;;5013538;28;46297;-71
2023/08/15 16:40:51;;;;;;;;;0.75;0.75;;;;;;;;5015363;28;45466;-72
2023/08/15 16:43:16;;;;;;;;;0.75;0.75;;;;;;;;5014348;28;45418;-72
2023/08/15 16:45:42;;;;;;;;;0.00;0.00;;;;;;;;5015160;28;45984;-72
2023/08/15 16:48:08;;;;;;;;;0.60;0.60;;;;;;;;5014473;28;45858;-71
2023/08/15 16:50:34;;;;;;;;;0.20;0.20;;;;;;;;5017505;28;45384;-71
2023/08/15 16:53:00;;;;;;;;;1.00;1.00;;;;;;;;5012159;28;45375;-71
2023/08/15 16:55:25;;;;;;;;;0.50;0.50;;;;;;;;5014760;28;45365;-71
2023/08/15 16:57:50;;;;;;;;;0.00;0.00;;;;;;;;5017600;28;46139;-71
2023/08/15 17:00:15;;;;;;;;;0.25;0.25;;;;;;;;5019130;28;45175;-71
2023/08/15 17:02:41;;;;;;;;;0.75;0.75;;;;;;;;5017635;28;45367;-71
2023/08/15 17:05:06;;;;;;;;;0.00;0.00;;;;;;;;5019712;28;45438;-72
2023/08/15 17:07:33;;;;;;;;;0.00;0.00;;;;;;;;5017421;28;46226;-72
2023/08/15 17:09:58;;;;;;;;;0.20;0.20;;;;;;;;5012889;28;44789;-73
2023/08/15 17:12:23;;;;;;;;;0.00;0.00;;;;;;;;5017983;28;45622;-73
2023/08/15 17:14:48;;;;;;;;;0.00;0.00;;;;;;;;5025498;28;45491;-74
2023/08/15 17:17:14;;;;;;;;;0.25;0.25;;;;;;;;5015901;28;45330;-73
2023/08/15 17:19:39;;;;;;;;;2.00;1.00;;;;;;;;5003243;28;45199;-73
2023/08/15 17:22:04;;;;;;;;;0.50;0.00;;;;;;;;5014660;28;45534;-73
2023/08/15 17:24:29;;;;;;;;;0.00;0.00;;;;;;;;5007414;28;45612;-73
2023/08/15 17:26:54;;;;;;;;;1.00;0.00;;;;;;;;5031340;28;45429;-73
2023/08/15 17:29:20;;;;;;;;;0.00;0.00;;;;;;;;5006082;28;45273;-73
2023/08/15 17:31:45;;;;;;;;;0.00;0.00;;;;;;;;5015762;28;47286;-73
2023/08/15 17:34:10;;;;;;;;;0.00;0.00;;;;;;;;5010439;28;45454;-73
2023/08/15 17:36:35;;;;;;;;;2.00;0.00;;;;;;;;5016033;28;45765;-72
2023/08/15 17:39:01;;;;;;;;;0.00;0.00;;;;;;;;5009851;28;45301;-74
2023/08/15 17:41:27;;;;;;;;;0.50;0.00;;;;;;;;5032719;28;45371;-73
2023/08/15 17:43:52;;;;;;;;;0.00;0.00;;;;;;;;5011662;28;45501;-73
2023/08/15 17:46:17;;;;;;;;;0.00;0.00;;;;;;;;5016316;28;46124;-74
2023/08/15 17:48:43;;;;;;;;;0.00;0.00;;;;;;;;5015835;28;45367;-73
2023/08/15 17:51:08;;;;;;;;;0.25;0.25;;;;;;;;5018891;28;45500;-74
2023/08/15 17:53:33;;;;;;;;;1.00;1.00;;;;;;;;5011678;28;46551;-74
2023/08/15 17:55:58;;;;;;;;;1.00;0.00;;;;;;;;5018899;28;46106;-74
2023/08/15 17:58:24;;;;;;;;;0.00;0.00;;;;;;;;5014952;28;45237;-72
2023/08/15 18:00:49;;;;;;;;;0.00;0.00;;;;;;;;5017868;28;45250;-72
2023/08/15 18:03:14;;;;;;;;;1.25;1.00;;;;;;;;5016747;28;45439;-72
2023/08/15 18:05:39;;;;;;;;;1.00;1.00;;;;;;;;5019020;28;46469;-72
2023/08/15 18:08:04;;;;;;;;;1.00;1.00;;;;;;;;5008484;28;45521;-72
2023/08/15 18:10:30;;;;;;;;;0.00;0.00;;;;;;;;5005453;28;45530;-71
2023/08/15 18:12:55;;;;;;;;;0.50;0.50;;;;;;;;5011734;28;45427;-77
2023/08/15 18:15:20;;;;;;;;;0.00;0.00;;;;;;;;5018238;28;45404;-74
2023/08/15 18:17:45;;;;;;;;;0.00;0.00;;;;;;;;5012881;28;45256;-74
2023/08/15 18:20:11;;;;;;;;;0.25;0.25;;;;;;;;5019046;28;45157;-74
2023/08/15 18:22:37;;;;;;;;;0.00;0.00;;;;;;;;5013987;28;45226;-73
2023/08/15 18:25:02;;;;;;;;;0.20;0.00;;;;;;;;5015561;28;45241;-74
2023/08/15 18:27:27;;;;;;;;;0.00;0.00;;;;;;;;5014771;28;45306;-73
2023/08/15 18:29:53;;;;;;;;;1.00;0.50;;;;;;;;5016528;28;45225;-73
2023/08/15 18:32:18;;;;;;;;;2.00;1.00;;;;;;;;5014769;28;45551;-73
2023/08/15 18:34:43;;;;;;;;;2.00;1.00;;;;;;;;5008847;28;46193;-74
2023/08/15 18:37:08;;;;;;;;;1.25;0.75;;;;;;;;5016421;28;45288;-74
2023/08/15 18:39:33;;;;;;;;;1.25;1.25;;;;;;;;5013918;28;45580;-73
2023/08/15 18:41:59;;;;;;;;;0.00;0.00;;;;;;;;5019182;28;45610;-74
2023/08/15 18:44:24;;;;;;;;;0.00;0.00;;;;;;;;5017546;28;45255;-74
2023/08/15 18:46:50;;;;;;;;;0.75;0.75;;;;;;;;5019823;28;45475;-73
2023/08/15 18:49:15;;;;;;;;;1.75;1.00;;;;;;;;5016876;28;45430;-74
2023/08/15 18:51:40;;;;;;;;;1.00;1.00;;;;;;;;5020550;28;45553;-74
2023/08/15 18:54:07;;;;;;;;;1.75;1.00;;;;;;;;5020164;28;46217;-73
2023/08/15 18:56:32;;;;;;;;;5.60;5.20;;;;;;;;5021657;28;45674;-75
2023/08/15 18:58:58;;;;;;;;;3.00;3.00;;;;;;;;5019605;28;45423;-74
2023/08/15 19:01:23;;;;;;;;;6.00;4.25;;;;;;;;5021744;28;45414;-74
2023/08/15 19:03:48;;;;;;;;;6.00;6.00;;;;;;;;5017472;28;45576;-74
2023/08/15 19:06:13;;;;;;;;;9.75;6.75;;;;;;;;5021720;28;45493;-74
2023/08/15 19:08:38;;;;;;;;;5.50;5.50;;;;;;;;5019408;28;45459;-74
2023/08/15 19:11:04;;;;;;;;;4.75;4.50;;;;;;;;5021574;28;45483;-74